sensor_id;sensor_type;location;lat;lon;timestamp;P1;durP1;ratioP1;P2;durP2;ratioP2
12232;SDS011;6179;51.748;8.728;2023-04-24T00:01:43;2.70;;;0.40;;
12232;SDS011;6179;51.748;8.728;2023-04-24T00:07:44;0.40;;;0.30;;
12232;SDS011;6179;51.748;8.728;2023-04-24T00:13:45;0.90;;;0.40;;
12232;SDS011;6179;51.748;8.728;2023-04-24T00:19:48;1.23;;;0.37;;
12232;SDS011;6179;51.748;8.728;2023-04-24T00:25:58;0.40;;;0.40;;
12232;SDS011;6179;51.748;8.728;2023-04-24T00:31:58;0.30;;;0.30;;
12232;SDS011;6179;51.748;8.728;2023-04-24T00:37:59;2.37;;;0.37;;
12232;SDS011;6179;51.748;8.728;2023-04-24T00:44:00;0.50;;;0.30;;
12232;SDS011;6179;51.748;8.728;2023-04-24T00:50:04;0.30;;;0.30;;
12232;SDS011;6179;51.748;8.728;2023-04-24T00:56:06;0.30;;;0.30;;
12232;SDS011;6179;51.748;8.728;2023-04-24T01:02:07;0.40;;;0.40;;
12232;SDS011;6179;51.748;8.728;2023-04-24T01:08:09;0.20;;;0.20;;
12232;SDS011;6179;51.748;8.728;2023-04-24T01:14:10;0.70;;;0.33;;
12232;SDS011;6179;51.748;8.728;2023-04-24T01:20:10;3.50;;;0.30;;
12232;SDS011;6179;51.748;8.728;2023-04-24T01:26:12;0.93;;;0.30;;
12232;SDS011;6179;51.748;8.728;2023-04-24T01:32:20;0.90;;;0.30;;
12232;SDS011;6179;51.748;8.728;2023-04-24T01:38:20;2.27;;;0.30;;
12232;SDS011;6179;51.748;8.728;2023-04-24T01:44:22;0.30;;;0.30;;
12232;SDS011;6179;51.748;8.728;2023-04-24T01:50:23;0.30;;;0.30;;
12232;SDS011;6179;51.748;8.728;2023-04-24T01:56:24;0.30;;;0.30;;
12232;SDS011;6179;51.748;8.728;2023-04-24T02:02:25;0.40;;;0.27;;
12232;SDS011;6179;51.748;8.728;2023-04-24T02:08:27;0.40;;;0.30;;
12232;SDS011;6179;51.748;8.728;2023-04-24T02:14:28;0.30;;;0.30;;
12232;SDS011;6179;51.748;8.728;2023-04-24T02:20:28;0.30;;;0.27;;
12232;SDS011;6179;51.748;8.728;2023-04-24T02:26:29;0.40;;;0.30;;
12232;SDS011;6179;51.748;8.728;2023-04-24T02:32:31;0.40;;;0.30;;
12232;SDS011;6179;51.748;8.728;2023-04-24T02:38:32;0.83;;;0.30;;
12232;SDS011;6179;51.748;8.728;2023-04-24T02:44:32;0.30;;;0.30;;
12232;SDS011;6179;51.748;8.728;2023-04-24T02:50:33;0.33;;;0.30;;
12232;SDS011;6179;51.748;8.728;2023-04-24T02:56:34;0.37;;;0.37;;
12232;SDS011;6179;51.748;8.728;2023-04-24T03:02:34;0.70;;;0.40;;
12232;SDS011;6179;51.748;8.728;2023-04-24T03:08:35;0.30;;;0.30;;
12232;SDS011;6179;51.748;8.728;2023-04-24T03:14:36;5.10;;;0.63;;
12232;SDS011;6179;51.748;8.728;2023-04-24T03:20:36;0.50;;;0.30;;
12232;SDS011;6179;51.748;8.728;2023-04-24T03:26:37;0.50;;;0.30;;
12232;SDS011;6179;51.748;8.728;2023-04-24T03:32:38;0.80;;;0.30;;
12232;SDS011;6179;51.748;8.728;2023-04-24T03:38:39;0.60;;;0.27;;
12232;SDS011;6179;51.748;8.728;2023-04-24T03:44:39;0.50;;;0.40;;
12232;SDS011;6179;51.748;8.728;2023-04-24T03:50:40;0.30;;;0.20;;
12232;SDS011;6179;51.748;8.728;2023-04-24T03:56:41;0.40;;;0.40;;
12232;SDS011;6179;51.748;8.728;2023-04-24T04:02:41;0.93;;;0.40;;
12232;SDS011;6179;51.748;8.728;2023-04-24T04:08:42;0.40;;;0.40;;
12232;SDS011;6179;51.748;8.728;2023-04-24T04:14:42;0.50;;;0.40;;
12232;SDS011;6179;51.748;8.728;2023-04-24T04:20:43;0.70;;;0.60;;
12232;SDS011;6179;51.748;8.728;2023-04-24T04:26:44;0.40;;;0.40;;
12232;SDS011;6179;51.748;8.728;2023-04-24T04:32:46;0.50;;;0.50;;
12232;SDS011;6179;51.748;8.728;2023-04-24T04:38:47;1.97;;;0.70;;
12232;SDS011;6179;51.748;8.728;2023-04-24T04:44:48;5.60;;;0.50;;
12232;SDS011;6179;51.748;8.728;2023-04-24T04:50:50;4.30;;;0.80;;
12232;SDS011;6179;51.748;8.728;2023-04-24T04:56:50;0.90;;;0.70;;
12232;SDS011;6179;51.748;8.728;2023-04-24T05:02:51;0.77;;;0.70;;
12232;SDS011;6179;51.748;8.728;2023-04-24T05:08:52;1.07;;;1.07;;
12232;SDS011;6179;51.748;8.728;2023-04-24T05:14:56;1.20;;;1.00;;
12232;SDS011;6179;51.748;8.728;2023-04-24T05:20:57;3.23;;;1.50;;
12232;SDS011;6179;51.748;8.728;2023-04-24T05:26:58;4.37;;;2.17;;
12232;SDS011;6179;51.748;8.728;2023-04-24T05:32:59;2.20;;;1.83;;
12232;SDS011;6179;51.748;8.728;2023-04-24T05:39:00;7.50;;;3.30;;
12232;SDS011;6179;51.748;8.728;2023-04-24T05:45:00;6.27;;;4.20;;
12232;SDS011;6179;51.748;8.728;2023-04-24T05:51:01;8.53;;;4.63;;
12232;SDS011;6179;51.748;8.728;2023-04-24T05:57:01;10.80;;;2.60;;
12232;SDS011;6179;51.748;8.728;2023-04-24T06:03:07;4.97;;;2.93;;
12232;SDS011;6179;51.748;8.728;2023-04-24T06:09:10;8.30;;;3.57;;
12232;SDS011;6179;51.748;8.728;2023-04-24T06:15:11;3.70;;;2.60;;
12232;SDS011;6179;51.748;8.728;2023-04-24T06:21:12;6.47;;;2.83;;
12232;SDS011;6179;51.748;8.728;2023-04-24T06:27:13;4.13;;;1.90;;
12232;SDS011;6179;51.748;8.728;2023-04-24T06:33:14;6.40;;;2.50;;
12232;SDS011;6179;51.748;8.728;2023-04-24T06:39:15;9.37;;;4.90;;
12232;SDS011;6179;51.748;8.728;2023-04-24T06:45:16;10.20;;;4.10;;
12232;SDS011;6179;51.748;8.728;2023-04-24T06:51:17;4.10;;;2.60;;
12232;SDS011;6179;51.748;8.728;2023-04-24T06:57:18;4.43;;;2.93;;
12232;SDS011;6179;51.748;8.728;2023-04-24T07:03:19;2.70;;;2.23;;
12232;SDS011;6179;51.748;8.728;2023-04-24T07:09:20;4.10;;;2.40;;
12232;SDS011;6179;51.748;8.728;2023-04-24T07:15:22;2.50;;;2.10;;
12232;SDS011;6179;51.748;8.728;2023-04-24T07:21:23;2.00;;;1.57;;
12232;SDS011;6179;51.748;8.728;2023-04-24T07:27:26;3.47;;;1.77;;
12232;SDS011;6179;51.748;8.728;2023-04-24T07:33:26;5.53;;;2.10;;
12232;SDS011;6179;51.748;8.728;2023-04-24T07:39:27;1.80;;;1.20;;
12232;SDS011;6179;51.748;8.728;2023-04-24T07:45:29;3.43;;;1.97;;
12232;SDS011;6179;51.748;8.728;2023-04-24T07:51:31;4.73;;;1.87;;
12232;SDS011;6179;51.748;8.728;2023-04-24T07:57:33;4.73;;;1.80;;
12232;SDS011;6179;51.748;8.728;2023-04-24T08:03:34;1.77;;;1.47;;
12232;SDS011;6179;51.748;8.728;2023-04-24T08:09:35;2.73;;;1.80;;
12232;SDS011;6179;51.748;8.728;2023-04-24T08:15:35;4.40;;;0.90;;
12232;SDS011;6179;51.748;8.728;2023-04-24T08:21:36;0.87;;;0.87;;
12232;SDS011;6179;51.748;8.728;2023-04-24T08:27:37;1.70;;;1.33;;
12232;SDS011;6179;51.748;8.728;2023-04-24T08:33:38;1.80;;;1.23;;
12232;SDS011;6179;51.748;8.728;2023-04-24T08:39:40;1.50;;;0.80;;
12232;SDS011;6179;51.748;8.728;2023-04-24T08:45:41;2.87;;;1.00;;
12232;SDS011;6179;51.748;8.728;2023-04-24T08:51:42;5.27;;;0.93;;
12232;SDS011;6179;51.748;8.728;2023-04-24T08:57:44;1.97;;;1.77;;
12232;SDS011;6179;51.748;8.728;2023-04-24T09:03:49;3.13;;;1.00;;
12232;SDS011;6179;51.748;8.728;2023-04-24T09:09:51;1.67;;;0.97;;
12232;SDS011;6179;51.748;8.728;2023-04-24T09:15:52;1.23;;;1.00;;
12232;SDS011;6179;51.748;8.728;2023-04-24T09:21:54;2.53;;;0.70;;
12232;SDS011;6179;51.748;8.728;2023-04-24T09:27:54;2.50;;;1.00;;
12232;SDS011;6179;51.748;8.728;2023-04-24T09:34:01;1.37;;;0.50;;
12232;SDS011;6179;51.748;8.728;2023-04-24T09:46:11;1.07;;;0.60;;
12232;SDS011;6179;51.748;8.728;2023-04-24T09:52:12;0.50;;;0.40;;
12232;SDS011;6179;51.748;8.728;2023-04-24T09:58:12;0.97;;;0.40;;
12232;SDS011;6179;51.748;8.728;2023-04-24T10:10:21;0.97;;;0.43;;
12232;SDS011;6179;51.748;8.728;2023-04-24T10:16:23;0.40;;;0.40;;
12232;SDS011;6179;51.748;8.728;2023-04-24T10:22:24;0.30;;;0.20;;
12232;SDS011;6179;51.748;8.728;2023-04-24T10:28:25;0.33;;;0.30;;
12232;SDS011;6179;51.748;8.728;2023-04-24T10:34:27;0.70;;;0.50;;
12232;SDS011;6179;51.748;8.728;2023-04-24T10:40:30;0.40;;;0.30;;
12232;SDS011;6179;51.748;8.728;2023-04-24T10:46:36;0.30;;;0.20;;
12232;SDS011;6179;51.748;8.728;2023-04-24T10:52:47;0.50;;;0.50;;
12232;SDS011;6179;51.748;8.728;2023-04-24T10:58:51;0.30;;;0.30;;
12232;SDS011;6179;51.748;8.728;2023-04-24T11:04:53;0.37;;;0.37;;
12232;SDS011;6179;51.748;8.728;2023-04-24T11:16:57;0.40;;;0.40;;
12232;SDS011;6179;51.748;8.728;2023-04-24T11:23:03;1.50;;;0.40;;
12232;SDS011;6179;51.748;8.728;2023-04-24T11:29:06;0.40;;;0.40;;
12232;SDS011;6179;51.748;8.728;2023-04-24T11:35:12;0.60;;;0.57;;
12232;SDS011;6179;51.748;8.728;2023-04-24T11:41:16;0.67;;;0.63;;
12232;SDS011;6179;51.748;8.728;2023-04-24T11:47:19;1.03;;;0.80;;
12232;SDS011;6179;51.748;8.728;2023-04-24T11:53:20;0.60;;;0.50;;
12232;SDS011;6179;51.748;8.728;2023-04-24T11:59:21;0.60;;;0.60;;
12232;SDS011;6179;51.748;8.728;2023-04-24T12:05:23;0.80;;;0.60;;
12232;SDS011;6179;51.748;8.728;2023-04-24T12:11:25;1.23;;;0.70;;
12232;SDS011;6179;51.748;8.728;2023-04-24T12:17:27;0.60;;;0.60;;
12232;SDS011;6179;51.748;8.728;2023-04-24T12:23:33;1.33;;;1.23;;
12232;SDS011;6179;51.748;8.728;2023-04-24T12:29:37;1.23;;;0.70;;
12232;SDS011;6179;51.748;8.728;2023-04-24T12:35:53;7.87;;;0.83;;
12232;SDS011;6179;51.748;8.728;2023-04-24T12:41:55;2.83;;;0.63;;
12232;SDS011;6179;51.748;8.728;2023-04-24T12:47:57;1.63;;;0.60;;
12232;SDS011;6179;51.748;8.728;2023-04-24T12:53:57;2.03;;;1.67;;
12232;SDS011;6179;51.748;8.728;2023-04-24T12:59:58;5.20;;;1.00;;
12232;SDS011;6179;51.748;8.728;2023-04-24T13:05:59;2.03;;;1.87;;
12232;SDS011;6179;51.748;8.728;2023-04-24T13:12:00;4.33;;;0.80;;
12232;SDS011;6179;51.748;8.728;2023-04-24T13:18:01;10.70;;;2.23;;
12232;SDS011;6179;51.748;8.728;2023-04-24T13:24:01;5.43;;;1.50;;
12232;SDS011;6179;51.748;8.728;2023-04-24T13:30:05;6.20;;;2.50;;
12232;SDS011;6179;51.748;8.728;2023-04-24T13:36:06;8.63;;;2.40;;
12232;SDS011;6179;51.748;8.728;2023-04-24T13:42:07;6.60;;;3.10;;
12232;SDS011;6179;51.748;8.728;2023-04-24T13:48:07;16.03;;;3.50;;
12232;SDS011;6179;51.748;8.728;2023-04-24T13:54:09;8.27;;;2.87;;
12232;SDS011;6179;51.748;8.728;2023-04-24T14:00:10;5.73;;;2.93;;
12232;SDS011;6179;51.748;8.728;2023-04-24T14:06:11;3.40;;;2.10;;
12232;SDS011;6179;51.748;8.728;2023-04-24T14:12:11;7.17;;;3.90;;
12232;SDS011;6179;51.748;8.728;2023-04-24T14:18:12;15.30;;;4.73;;
12232;SDS011;6179;51.748;8.728;2023-04-24T14:24:13;7.17;;;4.60;;
12232;SDS011;6179;51.748;8.728;2023-04-24T14:30:14;13.93;;;5.00;;
12232;SDS011;6179;51.748;8.728;2023-04-24T14:36:15;30.53;;;4.90;;
12232;SDS011;6179;51.748;8.728;2023-04-24T14:42:16;9.07;;;3.93;;
12232;SDS011;6179;51.748;8.728;2023-04-24T14:48:17;18.30;;;3.40;;
12232;SDS011;6179;51.748;8.728;2023-04-24T14:54:18;4.00;;;3.20;;
12232;SDS011;6179;51.748;8.728;2023-04-24T15:00:22;6.13;;;2.20;;
12232;SDS011;6179;51.748;8.728;2023-04-24T15:06:23;2.20;;;1.13;;
12232;SDS011;6179;51.748;8.728;2023-04-24T15:12:24;4.20;;;2.50;;
12232;SDS011;6179;51.748;8.728;2023-04-24T15:18:25;13.03;;;2.67;;
12232;SDS011;6179;51.748;8.728;2023-04-24T15:24:27;5.50;;;1.33;;
12232;SDS011;6179;51.748;8.728;2023-04-24T15:30:28;4.33;;;2.27;;
12232;SDS011;6179;51.748;8.728;2023-04-24T15:36:29;8.23;;;1.67;;
12232;SDS011;6179;51.748;8.728;2023-04-24T15:42:30;3.23;;;1.00;;
12232;SDS011;6179;51.748;8.728;2023-04-24T15:48:31;2.27;;;1.20;;
12232;SDS011;6179;51.748;8.728;2023-04-24T15:54:31;1.83;;;1.33;;
12232;SDS011;6179;51.748;8.728;2023-04-24T16:00:32;3.90;;;2.37;;
12232;SDS011;6179;51.748;8.728;2023-04-24T16:06:34;3.10;;;1.20;;
12232;SDS011;6179;51.748;8.728;2023-04-24T16:12:34;10.53;;;1.90;;
12232;SDS011;6179;51.748;8.728;2023-04-24T16:18:35;8.10;;;3.50;;
12232;SDS011;6179;51.748;8.728;2023-04-24T16:24:36;8.00;;;1.87;;
12232;SDS011;6179;51.748;8.728;2023-04-24T16:30:36;4.93;;;1.30;;
12232;SDS011;6179;51.748;8.728;2023-04-24T16:36:39;1.37;;;1.03;;
12232;SDS011;6179;51.748;8.728;2023-04-24T16:42:40;3.93;;;1.87;;
12232;SDS011;6179;51.748;8.728;2023-04-24T16:48:40;1.23;;;0.90;;
12232;SDS011;6179;51.748;8.728;2023-04-24T16:54:41;4.20;;;2.27;;
12232;SDS011;6179;51.748;8.728;2023-04-24T17:00:41;3.97;;;1.77;;
12232;SDS011;6179;51.748;8.728;2023-04-24T17:06:42;7.60;;;1.73;;
12232;SDS011;6179;51.748;8.728;2023-04-24T17:12:43;3.90;;;1.50;;
12232;SDS011;6179;51.748;8.728;2023-04-24T17:18:44;3.30;;;1.90;;
12232;SDS011;6179;51.748;8.728;2023-04-24T17:24:44;4.70;;;2.50;;
12232;SDS011;6179;51.748;8.728;2023-04-24T17:30:45;3.70;;;3.13;;
12232;SDS011;6179;51.748;8.728;2023-04-24T17:36:46;3.40;;;1.20;;
12232;SDS011;6179;51.748;8.728;2023-04-24T17:42:46;3.10;;;1.10;;
12232;SDS011;6179;51.748;8.728;2023-04-24T17:48:47;5.43;;;1.67;;
12232;SDS011;6179;51.748;8.728;2023-04-24T17:54:48;6.60;;;0.93;;
12232;SDS011;6179;51.748;8.728;2023-04-24T18:00:48;2.87;;;1.10;;
12232;SDS011;6179;51.748;8.728;2023-04-24T18:06:50;3.17;;;0.80;;
12232;SDS011;6179;51.748;8.728;2023-04-24T18:12:50;1.53;;;0.70;;
12232;SDS011;6179;51.748;8.728;2023-04-24T18:18:51;2.33;;;1.03;;
12232;SDS011;6179;51.748;8.728;2023-04-24T18:24:52;3.20;;;1.63;;
12232;SDS011;6179;51.748;8.728;2023-04-24T18:30:54;3.57;;;1.87;;
12232;SDS011;6179;51.748;8.728;2023-04-24T18:36:54;6.63;;;0.87;;
12232;SDS011;6179;51.748;8.728;2023-04-24T18:42:55;4.17;;;1.57;;
12232;SDS011;6179;51.748;8.728;2023-04-24T18:48:56;1.33;;;1.20;;
12232;SDS011;6179;51.748;8.728;2023-04-24T18:54:56;2.20;;;1.13;;
12232;SDS011;6179;51.748;8.728;2023-04-24T19:00:57;2.00;;;0.90;;
12232;SDS011;6179;51.748;8.728;2023-04-24T19:06:58;14.90;;;1.37;;
12232;SDS011;6179;51.748;8.728;2023-04-24T19:12:59;4.30;;;1.20;;
12232;SDS011;6179;51.748;8.728;2023-04-24T19:19:00;2.00;;;1.00;;
12232;SDS011;6179;51.748;8.728;2023-04-24T19:25:01;3.23;;;2.20;;
12232;SDS011;6179;51.748;8.728;2023-04-24T19:31:02;4.30;;;2.63;;
12232;SDS011;6179;51.748;8.728;2023-04-24T19:37:03;7.33;;;2.10;;
12232;SDS011;6179;51.748;8.728;2023-04-24T19:43:04;3.90;;;2.67;;
12232;SDS011;6179;51.748;8.728;2023-04-24T19:49:05;7.13;;;1.83;;
12232;SDS011;6179;51.748;8.728;2023-04-24T19:55:06;11.60;;;2.23;;
12232;SDS011;6179;51.748;8.728;2023-04-24T20:01:07;2.93;;;1.37;;
12232;SDS011;6179;51.748;8.728;2023-04-24T20:07:08;3.00;;;1.23;;
12232;SDS011;6179;51.748;8.728;2023-04-24T20:13:09;8.63;;;1.50;;
12232;SDS011;6179;51.748;8.728;2023-04-24T20:19:10;7.83;;;1.87;;
12232;SDS011;6179;51.748;8.728;2023-04-24T20:25:11;3.57;;;1.37;;
12232;SDS011;6179;51.748;8.728;2023-04-24T20:31:12;20.13;;;1.60;;
12232;SDS011;6179;51.748;8.728;2023-04-24T20:37:13;17.57;;;1.23;;
12232;SDS011;6179;51.748;8.728;2023-04-24T20:43:14;3.30;;;1.63;;
12232;SDS011;6179;51.748;8.728;2023-04-24T20:49:15;2.77;;;1.20;;
12232;SDS011;6179;51.748;8.728;2023-04-24T20:55:16;16.23;;;2.43;;
12232;SDS011;6179;51.748;8.728;2023-04-24T21:01:16;12.13;;;2.53;;
12232;SDS011;6179;51.748;8.728;2023-04-24T21:07:17;10.90;;;2.00;;
12232;SDS011;6179;51.748;8.728;2023-04-24T21:13:18;10.63;;;2.73;;
12232;SDS011;6179;51.748;8.728;2023-04-24T21:19:19;5.87;;;2.50;;
12232;SDS011;6179;51.748;8.728;2023-04-24T21:25:19;4.67;;;2.83;;
12232;SDS011;6179;51.748;8.728;2023-04-24T21:31:20;6.10;;;2.00;;
12232;SDS011;6179;51.748;8.728;2023-04-24T21:37:21;6.93;;;2.43;;
12232;SDS011;6179;51.748;8.728;2023-04-24T21:43:21;10.33;;;2.60;;
12232;SDS011;6179;51.748;8.728;2023-04-24T21:49:22;9.97;;;3.53;;
12232;SDS011;6179;51.748;8.728;2023-04-24T21:55:22;16.40;;;4.93;;
12232;SDS011;6179;51.748;8.728;2023-04-24T22:01:23;10.70;;;3.27;;
12232;SDS011;6179;51.748;8.728;2023-04-24T22:07:24;9.30;;;2.67;;
12232;SDS011;6179;51.748;8.728;2023-04-24T22:13:25;24.47;;;3.17;;
12232;SDS011;6179;51.748;8.728;2023-04-24T22:19:26;28.00;;;4.30;;
12232;SDS011;6179;51.748;8.728;2023-04-24T22:25:27;16.63;;;4.00;;
12232;SDS011;6179;51.748;8.728;2023-04-24T22:31:27;8.63;;;3.57;;
12232;SDS011;6179;51.748;8.728;2023-04-24T22:37:28;10.13;;;2.70;;
12232;SDS011;6179;51.748;8.728;2023-04-24T22:43:29;6.77;;;2.37;;
12232;SDS011;6179;51.748;8.728;2023-04-24T22:49:31;14.10;;;4.07;;
12232;SDS011;6179;51.748;8.728;2023-04-24T22:55:33;3.97;;;2.00;;
12232;SDS011;6179;51.748;8.728;2023-04-24T23:01:34;10.80;;;3.10;;
12232;SDS011;6179;51.748;8.728;2023-04-24T23:07:35;5.90;;;3.20;;
12232;SDS011;6179;51.748;8.728;2023-04-24T23:13:37;6.10;;;2.90;;
12232;SDS011;6179;51.748;8.728;2023-04-24T23:19:39;22.10;;;3.47;;
12232;SDS011;6179;51.748;8.728;2023-04-24T23:25:40;6.83;;;3.20;;
12232;SDS011;6179;51.748;8.728;2023-04-24T23:31:40;11.90;;;3.07;;
12232;SDS011;6179;51.748;8.728;2023-04-24T23:37:41;8.17;;;2.43;;
12232;SDS011;6179;51.748;8.728;2023-04-24T23:43:42;8.33;;;3.70;;
12232;SDS011;6179;51.748;8.728;2023-04-24T23:49:42;6.93;;;2.90;;
12232;SDS011;6179;51.748;8.728;2023-04-24T23:55:43;15.20;;;2.20;;
